Startpagina
METAR-TAF:

METAR-TAF

Vliegvelden :

L.F. Wade International Airport

Bermuda, Bermuda

breedte: 32-22N, lengte: 064-41W, hoogte: 6 m

Actueel weer

Dit bericht is 18 minuten geleden gemaakt, om 20:55 UTC
Wind 13 kt uit het zuidzuidoosten
Temperatuur 27°C
Vochtigheid 79%
Druk 1022 hPa
Zicht 10 km of meer
Weinig wolken op 2000 ft
Gebroken wolken op 18000 ft
Gebroken wolken op 30000 ft

METAR: TXKF 212055Z 15013KT 9999 FEW020 BKN180 BKN300 27/23 Q1022

Tijdstip: 18:13 (21:13 UTC)

Verwachting

Dit bericht is 3 uur en het 43 minuten geleden gemaakt, om 17:30 UTC
Verwachting geldig van 21 om 18 UTC tot 22 om 18 UTC
Wind 14 kt uit het zuidzuidoosten
Zicht 10 km of meer
Weinig wolken op 1300 ft
Verspreide wolken op 15000 ft
Gebroken wolken op 30000 ft

TAF: TXKF 211730Z 2118/2218 15014KT 9999 FEW013 SCT150 BKN300

Waarnemingen en weersverwachtingen van meer dan 4000 vliegvelden (METAR en TAF).

De beschikbare stations zijn de gele en rode punten op de kaart.

Ga met uw muis naar het station om de naam te zien.

Klik dan om waarnemingen en weersverwachtingen te zien.

kaart wijzigen: klik op de groene knoppen met een zwart kruis om in te zoomen, op de groene knop met een streepje om uit te zoomen of op de groene pijlen voor aangrenzende kaarten.


METAR-TAF: